Brownfield, TX (79316)

7:26 AM CDT on July 14, 2014 (GMT -0500)
Seminole (KGNC) Elev 3314 ft | 32.68 °N, 102.65 °W | Change Station

Current weather conditions updated 11 minutes ago

Clear
Clear
72 °F
Feels Like 72 °F
N
6
Wind Variable Wind from SW

Today is forecast to be Warmer than yesterday. Showers and thunderstorms late tonight.

Today
High -- | Low -- °F
--% Chance of Precip.
Yesterday
High -- | Low -- °F
Precip. -- in
6:50 AM 8:59 PM
Waning Gibbous, 94% visible
Pressure 30.16 in
Visibility 10.0 miles
Clouds Clear
Dew Point 58 °F
Humidity 62%
Rainfall 0.00 in
Snow Depth Not available.
UV 0 out of 12
Pollen 3.40 out of 12
Air Quality Not available.
Flu Activity Sporadic
METAR KGNC 141215Z AUTO 23005KT 10SM CLR 22/14 A3016 RMK AO2 T02200143

More Conditions Fewer Conditions

Pressure 30.16 in
Visibility 10.0 miles
Clouds Clear
Dew Point 58 °F
Humidity 62%
Rainfall 0.00 in
Snow Depth Not available.
UV 0 out of 12
Pollen 3.40 out of 12
Air Quality Not available.
Flu Activity Sporadic
METAR KGNC 141215Z AUTO 23005KT 10SM CLR 22/14 A3016 RMK AO2 T02200143

More Conditions Fewer Conditions

10-Day Weather Forecast

Almanac

Astronomy

Jul. 14, 2014 Rise Set
Actual Time 6:50 AM CDT 8:59 PM CDT
Civil Twilight 6:22 AM CDT 9:27 PM CDT
Nautical Twilight 5:47 AM CDT 10:01 PM CDT
Astronomical Twilight 5:10 AM CDT 10:38 PM CDT
Moon 10:42 PM CDT 9:25 AM CDT
Length of Visible Light 15h 05m
Length of Day
14h 08m
Tomorrow will be 1m 1s shorter.
Waning Gibbous, 94% of the Moon is Illuminated
Today
Waning Gibbous
Jul 18
Last Quarter
Jul 26
New
Aug 3
First Quarter
Aug 10
Full

Today's Extremes

State Highs State Lows

Community

WunderPhotos

Upload Photos

1,733,622 photos uploaded!

Nearby

Snow Depth

Station Depth Elevation
No new snow has been reported.

Earthquake Activity

City Distance Mag. Time & Date
No recent earthquake activity has been reported nearby.
Minimum magnitude displayed is 2.5.

Coastal Water Temperatures

Place Temperature
No Stations Reporting

Nearby Weather Stations

Station Location Temp. Dew Point Humidity Wind Precip. Elev Updated Type
WT_Meso Brownfield 2S, Brownfield, TX 70 °F 57 °F 67% West  at  8 mph 0.00 in / hr 3313 ft 6:25 AM CDT MADIS
WT_Meso Wolfforth 6 mi SW, Ropesville, TX 70 °F 57 °F 62% West  at  4 mph 0.00 in / hr 3307 ft 6:25 AM CDT MADIS
WT_Meso Seagraves 1SW, Seagraves, TX 69 °F 58 °F 68% West  at  7 mph 0.00 in / hr 3359 ft 6:25 AM CDT MADIS
WT_Meso Sundown 8SW, Sundown, TX 64 °F 56 °F 77% West  at  7 mph 0.00 in / hr 3625 ft 6:25 AM CDT MADIS
WT_Meso Levelland 4S, Levelland, TX 68 °F 55 °F 64% West  at  6 mph 0.00 in / hr 3496 ft 6:25 AM CDT MADIS

Show More Stations Show Fewer Stations